sensor_id;sensor_type;location;lat;lon;timestamp;temperature;humidity
6879;DHT22;3478;51.462;7.338;2023-04-25T00:02:00;6.80;99.90
6879;DHT22;3478;51.462;7.338;2023-04-25T00:07:03;6.90;99.90
6879;DHT22;3478;51.462;7.338;2023-04-25T00:12:06;7.00;99.90
6879;DHT22;3478;51.462;7.338;2023-04-25T00:17:08;7.00;99.90
6879;DHT22;3478;51.462;7.338;2023-04-25T00:22:11;7.00;99.90
6879;DHT22;3478;51.462;7.338;2023-04-25T00:27:13;7.00;99.90
6879;DHT22;3478;51.462;7.338;2023-04-25T00:32:15;7.00;99.90
6879;DHT22;3478;51.462;7.338;2023-04-25T00:37:18;7.00;99.90
6879;DHT22;3478;51.462;7.338;2023-04-25T00:42:20;7.00;99.90
6879;DHT22;3478;51.462;7.338;2023-04-25T00:47:24;7.00;99.90
6879;DHT22;3478;51.462;7.338;2023-04-25T00:52:28;7.10;99.90
6879;DHT22;3478;51.462;7.338;2023-04-25T00:57:30;7.10;99.90
6879;DHT22;3478;51.462;7.338;2023-04-25T01:02:32;7.10;99.90
6879;DHT22;3478;51.462;7.338;2023-04-25T01:07:37;7.10;99.90
6879;DHT22;3478;51.462;7.338;2023-04-25T01:12:39;7.10;99.90
6879;DHT22;3478;51.462;7.338;2023-04-25T01:17:41;7.10;99.90
6879;DHT22;3478;51.462;7.338;2023-04-25T01:22:46;7.00;99.90
6879;DHT22;3478;51.462;7.338;2023-04-25T01:27:48;7.00;99.90
6879;DHT22;3478;51.462;7.338;2023-04-25T01:32:50;7.00;99.90
6879;DHT22;3478;51.462;7.338;2023-04-25T01:37:55;6.90;99.90
6879;DHT22;3478;51.462;7.338;2023-04-25T01:42:57;6.90;99.90
6879;DHT22;3478;51.462;7.338;2023-04-25T01:47:59;6.90;99.90
6879;DHT22;3478;51.462;7.338;2023-04-25T01:53:02;6.90;99.90
6879;DHT22;3478;51.462;7.338;2023-04-25T01:58:04;7.00;99.90
6879;DHT22;3478;51.462;7.338;2023-04-25T02:03:09;7.00;99.90
6879;DHT22;3478;51.462;7.338;2023-04-25T02:08:13;7.00;99.90
6879;DHT22;3478;51.462;7.338;2023-04-25T02:13:15;6.90;99.90
6879;DHT22;3478;51.462;7.338;2023-04-25T02:18:17;7.00;99.90
6879;DHT22;3478;51.462;7.338;2023-04-25T02:23:20;7.00;99.90
6879;DHT22;3478;51.462;7.338;2023-04-25T02:28:22;7.10;99.90
6879;DHT22;3478;51.462;7.338;2023-04-25T02:33:24;7.00;99.90
6879;DHT22;3478;51.462;7.338;2023-04-25T02:38:28;6.90;99.90
6879;DHT22;3478;51.462;7.338;2023-04-25T02:43:29;6.90;99.90
6879;DHT22;3478;51.462;7.338;2023-04-25T02:48:31;6.90;99.90
6879;DHT22;3478;51.462;7.338;2023-04-25T02:53:35;6.90;99.90
6879;DHT22;3478;51.462;7.338;2023-04-25T02:58:36;6.90;99.90
6879;DHT22;3478;51.462;7.338;2023-04-25T03:03:38;7.00;99.90
6879;DHT22;3478;51.462;7.338;2023-04-25T03:08:42;6.90;99.90
6879;DHT22;3478;51.462;7.338;2023-04-25T03:13:44;6.80;99.90
6879;DHT22;3478;51.462;7.338;2023-04-25T03:18:46;6.80;99.90
6879;DHT22;3478;51.462;7.338;2023-04-25T03:23:51;6.70;99.90
6879;DHT22;3478;51.462;7.338;2023-04-25T03:28:53;6.70;99.90
6879;DHT22;3478;51.462;7.338;2023-04-25T03:33:55;6.70;99.90
6879;DHT22;3478;51.462;7.338;2023-04-25T03:38:59;6.70;99.90
6879;DHT22;3478;51.462;7.338;2023-04-25T03:44:01;6.60;99.90
6879;DHT22;3478;51.462;7.338;2023-04-25T03:49:03;6.60;99.90
6879;DHT22;3478;51.462;7.338;2023-04-25T03:54:06;6.60;99.90
6879;DHT22;3478;51.462;7.338;2023-04-25T03:59:08;6.60;99.90
6879;DHT22;3478;51.462;7.338;2023-04-25T04:04:10;6.50;99.90
6879;DHT22;3478;51.462;7.338;2023-04-25T04:09:13;6.60;99.90
6879;DHT22;3478;51.462;7.338;2023-04-25T04:14:16;6.70;99.90
6879;DHT22;3478;51.462;7.338;2023-04-25T04:19:18;6.60;99.90
6879;DHT22;3478;51.462;7.338;2023-04-25T04:24:21;6.50;99.90
6879;DHT22;3478;51.462;7.338;2023-04-25T04:29:23;6.30;99.90
6879;DHT22;3478;51.462;7.338;2023-04-25T04:34:25;6.20;99.90
6879;DHT22;3478;51.462;7.338;2023-04-25T04:39:28;6.20;99.90
6879;DHT22;3478;51.462;7.338;2023-04-25T04:44:31;6.20;99.90
6879;DHT22;3478;51.462;7.338;2023-04-25T04:49:34;6.10;99.90
6879;DHT22;3478;51.462;7.338;2023-04-25T04:54:38;6.20;99.90
6879;DHT22;3478;51.462;7.338;2023-04-25T04:59:40;6.20;99.90
6879;DHT22;3478;51.462;7.338;2023-04-25T05:04:42;6.20;99.90
6879;DHT22;3478;51.462;7.338;2023-04-25T05:09:45;6.20;99.90
6879;DHT22;3478;51.462;7.338;2023-04-25T05:14:47;6.20;99.90
6879;DHT22;3478;51.462;7.338;2023-04-25T05:19:49;6.20;99.90
6879;DHT22;3478;51.462;7.338;2023-04-25T05:24:52;6.20;99.90
6879;DHT22;3478;51.462;7.338;2023-04-25T05:29:54;6.30;99.90
6879;DHT22;3478;51.462;7.338;2023-04-25T05:34:56;6.30;99.90
6879;DHT22;3478;51.462;7.338;2023-04-25T05:40:00;6.40;99.90
6879;DHT22;3478;51.462;7.338;2023-04-25T05:45:02;6.50;99.90
6879;DHT22;3478;51.462;7.338;2023-04-25T05:50:06;6.60;99.90
6879;DHT22;3478;51.462;7.338;2023-04-25T05:55:10;6.60;99.90
6879;DHT22;3478;51.462;7.338;2023-04-25T06:00:13;6.70;99.90
6879;DHT22;3478;51.462;7.338;2023-04-25T06:05:16;6.90;99.90
6879;DHT22;3478;51.462;7.338;2023-04-25T06:10:19;6.90;99.90
6879;DHT22;3478;51.462;7.338;2023-04-25T06:15:21;7.10;99.90
6879;DHT22;3478;51.462;7.338;2023-04-25T06:20:23;7.20;99.90
6879;DHT22;3478;51.462;7.338;2023-04-25T06:25:26;7.20;99.90
6879;DHT22;3478;51.462;7.338;2023-04-25T06:30:28;7.20;99.90
6879;DHT22;3478;51.462;7.338;2023-04-25T06:35:30;7.10;99.90
6879;DHT22;3478;51.462;7.338;2023-04-25T06:40:34;7.20;99.90
6879;DHT22;3478;51.462;7.338;2023-04-25T06:45:36;7.20;99.90
6879;DHT22;3478;51.462;7.338;2023-04-25T06:50:37;7.50;99.90
6879;DHT22;3478;51.462;7.338;2023-04-25T06:55:41;7.70;99.90
6879;DHT22;3478;51.462;7.338;2023-04-25T07:00:43;7.80;99.90
6879;DHT22;3478;51.462;7.338;2023-04-25T07:05:45;7.80;99.90
6879;DHT22;3478;51.462;7.338;2023-04-25T07:10:48;7.90;99.90
6879;DHT22;3478;51.462;7.338;2023-04-25T07:15:50;8.10;99.90
6879;DHT22;3478;51.462;7.338;2023-04-25T07:20:52;8.30;99.90
6879;DHT22;3478;51.462;7.338;2023-04-25T07:25:55;8.40;99.90
6879;DHT22;3478;51.462;7.338;2023-04-25T07:30:57;8.80;99.90
6879;DHT22;3478;51.462;7.338;2023-04-25T07:35:59;8.80;99.90
6879;DHT22;3478;51.462;7.338;2023-04-25T07:41:03;8.50;99.90
6879;DHT22;3478;51.462;7.338;2023-04-25T07:46:04;8.20;99.90
6879;DHT22;3478;51.462;7.338;2023-04-25T07:51:06;8.20;99.90
6879;DHT22;3478;51.462;7.338;2023-04-25T07:56:10;8.30;99.90
6879;DHT22;3478;51.462;7.338;2023-04-25T08:01:11;8.20;99.90
6879;DHT22;3478;51.462;7.338;2023-04-25T08:06:13;8.50;99.90
6879;DHT22;3478;51.462;7.338;2023-04-25T08:11:17;8.70;99.90
6879;DHT22;3478;51.462;7.338;2023-04-25T08:16:19;8.70;99.90
6879;DHT22;3478;51.462;7.338;2023-04-25T08:21:20;9.10;99.90
6879;DHT22;3478;51.462;7.338;2023-04-25T08:26:24;9.50;99.90
6879;DHT22;3478;51.462;7.338;2023-04-25T08:31:26;9.70;99.90
6879;DHT22;3478;51.462;7.338;2023-04-25T08:36:28;9.50;99.90
6879;DHT22;3478;51.462;7.338;2023-04-25T08:41:31;9.30;99.90
6879;DHT22;3478;51.462;7.338;2023-04-25T08:46:33;9.70;99.90
6879;DHT22;3478;51.462;7.338;2023-04-25T08:51:39;9.90;99.90
6879;DHT22;3478;51.462;7.338;2023-04-25T08:56:48;10.10;99.90
6879;DHT22;3478;51.462;7.338;2023-04-25T09:01:50;9.90;99.90
6879;DHT22;3478;51.462;7.338;2023-04-25T09:06:52;9.40;99.90
6879;DHT22;3478;51.462;7.338;2023-04-25T09:11:55;9.40;99.90
6879;DHT22;3478;51.462;7.338;2023-04-25T09:17:02;9.50;99.90
6879;DHT22;3478;51.462;7.338;2023-04-25T09:22:05;10.00;99.90
6879;DHT22;3478;51.462;7.338;2023-04-25T09:27:09;9.80;99.90
6879;DHT22;3478;51.462;7.338;2023-04-25T09:32:14;10.20;99.90
6879;DHT22;3478;51.462;7.338;2023-04-25T09:37:20;10.20;99.90
6879;DHT22;3478;51.462;7.338;2023-04-25T09:42:24;10.60;99.90
6879;DHT22;3478;51.462;7.338;2023-04-25T09:47:27;10.50;99.90
6879;DHT22;3478;51.462;7.338;2023-04-25T09:52:29;10.10;99.90
6879;DHT22;3478;51.462;7.338;2023-04-25T09:57:32;9.70;99.90
6879;DHT22;3478;51.462;7.338;2023-04-25T10:02:35;9.80;99.90
6879;DHT22;3478;51.462;7.338;2023-04-25T10:07:37;9.60;99.20
6879;DHT22;3478;51.462;7.338;2023-04-25T10:12:42;9.80;99.40
6879;DHT22;3478;51.462;7.338;2023-04-25T10:17:45;10.10;98.80
6879;DHT22;3478;51.462;7.338;2023-04-25T10:22:47;10.70;97.30
6879;DHT22;3478;51.462;7.338;2023-04-25T10:27:55;11.00;94.10
6879;DHT22;3478;51.462;7.338;2023-04-25T10:32:59;11.20;94.60
6879;DHT22;3478;51.462;7.338;2023-04-25T10:38:03;11.10;93.40
6879;DHT22;3478;51.462;7.338;2023-04-25T10:43:36;10.90;94.30
6879;DHT22;3478;51.462;7.338;2023-04-25T10:48:45;10.50;94.60
6879;DHT22;3478;51.462;7.338;2023-04-25T10:53:56;10.30;94.70
6879;DHT22;3478;51.462;7.338;2023-04-25T10:59:08;10.50;94.30
6879;DHT22;3478;51.462;7.338;2023-04-25T11:04:20;10.20;93.20
6879;DHT22;3478;51.462;7.338;2023-04-25T11:09:24;10.00;94.20
6879;DHT22;3478;51.462;7.338;2023-04-25T11:14:28;10.10;95.60
6879;DHT22;3478;51.462;7.338;2023-04-25T11:19:30;10.00;95.30
6879;DHT22;3478;51.462;7.338;2023-04-25T11:24:33;9.60;99.10
6879;DHT22;3478;51.462;7.338;2023-04-25T11:29:37;9.40;99.90
6879;DHT22;3478;51.462;7.338;2023-04-25T11:34:39;9.70;99.90
6879;DHT22;3478;51.462;7.338;2023-04-25T11:39:44;9.70;99.90
6879;DHT22;3478;51.462;7.338;2023-04-25T11:44:49;9.70;99.90
6879;DHT22;3478;51.462;7.338;2023-04-25T11:49:53;9.40;99.90
6879;DHT22;3478;51.462;7.338;2023-04-25T11:54:56;9.50;99.90
6879;DHT22;3478;51.462;7.338;2023-04-25T12:00:09;9.70;98.30
6879;DHT22;3478;51.462;7.338;2023-04-25T12:05:14;10.30;97.70
6879;DHT22;3478;51.462;7.338;2023-04-25T12:10:18;11.30;97.10
6879;DHT22;3478;51.462;7.338;2023-04-25T12:15:25;12.90;94.30
6879;DHT22;3478;51.462;7.338;2023-04-25T12:20:27;13.80;83.30
6879;DHT22;3478;51.462;7.338;2023-04-25T12:25:35;14.40;84.50
6879;DHT22;3478;51.462;7.338;2023-04-25T12:30:55;15.50;84.30
6879;DHT22;3478;51.462;7.338;2023-04-25T12:35:58;16.20;75.20
6879;DHT22;3478;51.462;7.338;2023-04-25T12:41:01;15.90;67.70
6879;DHT22;3478;51.462;7.338;2023-04-25T12:46:05;15.90;69.50
6879;DHT22;3478;51.462;7.338;2023-04-25T12:51:07;14.90;68.70
6879;DHT22;3478;51.462;7.338;2023-04-25T12:56:09;14.10;71.40
6879;DHT22;3478;51.462;7.338;2023-04-25T13:01:12;12.90;74.40
6879;DHT22;3478;51.462;7.338;2023-04-25T13:06:14;12.50;76.80
6879;DHT22;3478;51.462;7.338;2023-04-25T13:11:17;12.20;78.40
6879;DHT22;3478;51.462;7.338;2023-04-25T13:16:20;11.70;81.70
6879;DHT22;3478;51.462;7.338;2023-04-25T13:21:22;11.30;78.60
6879;DHT22;3478;51.462;7.338;2023-04-25T13:26:25;10.70;80.60
6879;DHT22;3478;51.462;7.338;2023-04-25T13:31:29;10.60;83.20
6879;DHT22;3478;51.462;7.338;2023-04-25T13:36:31;10.40;82.20
6879;DHT22;3478;51.462;7.338;2023-04-25T13:41:34;10.10;81.90
6879;DHT22;3478;51.462;7.338;2023-04-25T13:46:37;10.20;83.00
6879;DHT22;3478;51.462;7.338;2023-04-25T13:51:39;10.30;83.90
6879;DHT22;3478;51.462;7.338;2023-04-25T13:56:42;10.20;86.40
6879;DHT22;3478;51.462;7.338;2023-04-25T14:01:46;10.10;86.90
6879;DHT22;3478;51.462;7.338;2023-04-25T14:06:47;10.30;90.00
6879;DHT22;3478;51.462;7.338;2023-04-25T14:11:49;10.80;88.80
6879;DHT22;3478;51.462;7.338;2023-04-25T14:16:53;12.10;87.00
6879;DHT22;3478;51.462;7.338;2023-04-25T14:21:55;13.50;81.10
6879;DHT22;3478;51.462;7.338;2023-04-25T14:26:57;14.80;79.60
6879;DHT22;3478;51.462;7.338;2023-04-25T14:32:01;15.90;72.90
6879;DHT22;3478;51.462;7.338;2023-04-25T14:37:03;16.30;68.70
6879;DHT22;3478;51.462;7.338;2023-04-25T14:42:05;16.70;69.20
6879;DHT22;3478;51.462;7.338;2023-04-25T14:47:08;17.10;63.60
6879;DHT22;3478;51.462;7.338;2023-04-25T14:52:10;16.40;62.80
6879;DHT22;3478;51.462;7.338;2023-04-25T14:57:12;14.90;61.80
6879;DHT22;3478;51.462;7.338;2023-04-25T15:02:15;13.40;64.00
6879;DHT22;3478;51.462;7.338;2023-04-25T15:07:18;12.50;66.50
6879;DHT22;3478;51.462;7.338;2023-04-25T15:12:20;12.10;66.10
6879;DHT22;3478;51.462;7.338;2023-04-25T15:17:23;11.70;68.30
6879;DHT22;3478;51.462;7.338;2023-04-25T15:22:25;11.70;73.80
6879;DHT22;3478;51.462;7.338;2023-04-25T15:27:27;11.70;78.50
6879;DHT22;3478;51.462;7.338;2023-04-25T15:32:31;11.90;80.40
6879;DHT22;3478;51.462;7.338;2023-04-25T15:37:33;12.00;83.00
6879;DHT22;3478;51.462;7.338;2023-04-25T15:42:35;12.50;82.10
6879;DHT22;3478;51.462;7.338;2023-04-25T15:47:39;13.20;79.60
6879;DHT22;3478;51.462;7.338;2023-04-25T15:52:41;13.80;80.30
6879;DHT22;3478;51.462;7.338;2023-04-25T15:57:43;14.90;69.60
6879;DHT22;3478;51.462;7.338;2023-04-25T16:02:47;15.20;69.50
6879;DHT22;3478;51.462;7.338;2023-04-25T16:07:50;16.10;69.00
6879;DHT22;3478;51.462;7.338;2023-04-25T16:12:53;17.30;63.90
6879;DHT22;3478;51.462;7.338;2023-04-25T16:17:56;18.40;61.60
6879;DHT22;3478;51.462;7.338;2023-04-25T16:22:58;18.30;56.90
6879;DHT22;3478;51.462;7.338;2023-04-25T16:28:00;15.60;65.70
6879;DHT22;3478;51.462;7.338;2023-04-25T16:33:03;13.90;70.10
6879;DHT22;3478;51.462;7.338;2023-04-25T16:38:05;12.80;72.90
6879;DHT22;3478;51.462;7.338;2023-04-25T16:43:07;12.10;75.60
6879;DHT22;3478;51.462;7.338;2023-04-25T16:48:10;11.60;78.10
6879;DHT22;3478;51.462;7.338;2023-04-25T16:53:12;11.40;80.00
6879;DHT22;3478;51.462;7.338;2023-04-25T16:58:14;11.90;80.80
6879;DHT22;3478;51.462;7.338;2023-04-25T17:03:17;12.50;76.70
6879;DHT22;3478;51.462;7.338;2023-04-25T17:08:19;13.20;77.40
6879;DHT22;3478;51.462;7.338;2023-04-25T17:13:22;14.50;76.60
6879;DHT22;3478;51.462;7.338;2023-04-25T17:18:25;15.10;72.90
6879;DHT22;3478;51.462;7.338;2023-04-25T17:23:27;14.70;73.00
6879;DHT22;3478;51.462;7.338;2023-04-25T17:28:31;15.20;72.40
6879;DHT22;3478;51.462;7.338;2023-04-25T17:33:34;14.70;69.60
6879;DHT22;3478;51.462;7.338;2023-04-25T17:38:35;14.10;69.50
6879;DHT22;3478;51.462;7.338;2023-04-25T17:43:38;13.70;71.80
6879;DHT22;3478;51.462;7.338;2023-04-25T17:48:41;13.60;71.90
6879;DHT22;3478;51.462;7.338;2023-04-25T17:53:43;13.20;72.20
6879;DHT22;3478;51.462;7.338;2023-04-25T17:58:45;12.30;75.30
6879;DHT22;3478;51.462;7.338;2023-04-25T18:03:48;11.80;75.40
6879;DHT22;3478;51.462;7.338;2023-04-25T18:08:50;11.40;76.60
6879;DHT22;3478;51.462;7.338;2023-04-25T18:13:52;11.10;71.30
6879;DHT22;3478;51.462;7.338;2023-04-25T18:18:55;10.60;73.20
6879;DHT22;3478;51.462;7.338;2023-04-25T18:24:05;10.30;71.30
6879;DHT22;3478;51.462;7.338;2023-04-25T18:29:10;9.80;73.90
6879;DHT22;3478;51.462;7.338;2023-04-25T18:34:13;9.40;76.10
6879;DHT22;3478;51.462;7.338;2023-04-25T18:39:15;9.20;78.30
6879;DHT22;3478;51.462;7.338;2023-04-25T18:44:17;9.00;80.30
6879;DHT22;3478;51.462;7.338;2023-04-25T18:49:20;9.00;81.50
6879;DHT22;3478;51.462;7.338;2023-04-25T18:54:22;9.00;82.30
6879;DHT22;3478;51.462;7.338;2023-04-25T18:59:24;8.90;83.20
6879;DHT22;3478;51.462;7.338;2023-04-25T19:04:27;8.80;84.40
6879;DHT22;3478;51.462;7.338;2023-04-25T19:09:29;8.70;85.70
6879;DHT22;3478;51.462;7.338;2023-04-25T19:14:31;8.60;87.50
6879;DHT22;3478;51.462;7.338;2023-04-25T19:19:34;8.50;86.90
6879;DHT22;3478;51.462;7.338;2023-04-25T19:24:36;8.40;85.70
6879;DHT22;3478;51.462;7.338;2023-04-25T19:29:39;8.20;86.00
6879;DHT22;3478;51.462;7.338;2023-04-25T19:34:46;8.20;85.70
6879;DHT22;3478;51.462;7.338;2023-04-25T19:39:48;8.00;87.40
6879;DHT22;3478;51.462;7.338;2023-04-25T19:44:50;8.00;87.70
6879;DHT22;3478;51.462;7.338;2023-04-25T19:49:54;8.00;88.90
6879;DHT22;3478;51.462;7.338;2023-04-25T19:54:56;8.00;89.30
6879;DHT22;3478;51.462;7.338;2023-04-25T20:00:04;7.90;90.40
6879;DHT22;3478;51.462;7.338;2023-04-25T20:05:10;7.80;91.20
6879;DHT22;3478;51.462;7.338;2023-04-25T20:10:12;7.70;91.80
6879;DHT22;3478;51.462;7.338;2023-04-25T20:15:16;7.60;92.70
6879;DHT22;3478;51.462;7.338;2023-04-25T20:20:20;7.60;93.00
6879;DHT22;3478;51.462;7.338;2023-04-25T20:25:23;7.40;93.30
6879;DHT22;3478;51.462;7.338;2023-04-25T20:30:24;7.20;94.20
6879;DHT22;3478;51.462;7.338;2023-04-25T20:35:28;7.10;94.90
6879;DHT22;3478;51.462;7.338;2023-04-25T20:40:30;7.00;95.90
6879;DHT22;3478;51.462;7.338;2023-04-25T20:45:32;6.90;96.30
6879;DHT22;3478;51.462;7.338;2023-04-25T20:50:37;6.90;96.40
6879;DHT22;3478;51.462;7.338;2023-04-25T20:55:38;6.80;97.10
6879;DHT22;3478;51.462;7.338;2023-04-25T21:00:41;6.80;97.20
6879;DHT22;3478;51.462;7.338;2023-04-25T21:05:44;6.80;97.70
6879;DHT22;3478;51.462;7.338;2023-04-25T21:10:47;6.70;98.90
6879;DHT22;3478;51.462;7.338;2023-04-25T21:15:48;6.70;99.20
6879;DHT22;3478;51.462;7.338;2023-04-25T21:20:52;6.70;99.00
6879;DHT22;3478;51.462;7.338;2023-04-25T21:25:54;6.60;99.50
6879;DHT22;3478;51.462;7.338;2023-04-25T21:30:56;6.50;99.90
6879;DHT22;3478;51.462;7.338;2023-04-25T21:36:00;6.40;99.90
6879;DHT22;3478;51.462;7.338;2023-04-25T21:41:01;6.30;99.90
6879;DHT22;3478;51.462;7.338;2023-04-25T21:46:03;6.30;99.90
6879;DHT22;3478;51.462;7.338;2023-04-25T21:51:07;6.20;99.90
6879;DHT22;3478;51.462;7.338;2023-04-25T21:56:08;6.10;99.90
6879;DHT22;3478;51.462;7.338;2023-04-25T22:01:10;5.90;99.90
6879;DHT22;3478;51.462;7.338;2023-04-25T22:06:13;5.90;99.90
6879;DHT22;3478;51.462;7.338;2023-04-25T22:11:15;5.80;99.90
6879;DHT22;3478;51.462;7.338;2023-04-25T22:16:17;5.70;99.90
6879;DHT22;3478;51.462;7.338;2023-04-25T22:21:21;5.70;99.90
6879;DHT22;3478;51.462;7.338;2023-04-25T22:26:23;5.80;99.90
6879;DHT22;3478;51.462;7.338;2023-04-25T22:31:26;5.70;99.90
6879;DHT22;3478;51.462;7.338;2023-04-25T22:36:29;5.70;99.90
6879;DHT22;3478;51.462;7.338;2023-04-25T22:41:31;5.70;99.90
6879;DHT22;3478;51.462;7.338;2023-04-25T22:46:33;5.70;99.90
6879;DHT22;3478;51.462;7.338;2023-04-25T22:51:36;5.70;99.90
6879;DHT22;3478;51.462;7.338;2023-04-25T22:56:38;5.70;99.90
6879;DHT22;3478;51.462;7.338;2023-04-25T23:01:40;5.70;99.90
6879;DHT22;3478;51.462;7.338;2023-04-25T23:06:43;5.70;99.90
6879;DHT22;3478;51.462;7.338;2023-04-25T23:11:45;5.70;99.90
6879;DHT22;3478;51.462;7.338;2023-04-25T23:16:47;5.60;99.90
6879;DHT22;3478;51.462;7.338;2023-04-25T23:21:51;5.70;99.90
6879;DHT22;3478;51.462;7.338;2023-04-25T23:26:53;5.60;99.90
6879;DHT22;3478;51.462;7.338;2023-04-25T23:31:55;5.60;99.90
6879;DHT22;3478;51.462;7.338;2023-04-25T23:36:59;5.50;99.90
6879;DHT22;3478;51.462;7.338;2023-04-25T23:42:03;5.40;99.90
6879;DHT22;3478;51.462;7.338;2023-04-25T23:47:05;5.40;99.90
6879;DHT22;3478;51.462;7.338;2023-04-25T23:52:08;5.30;99.90
6879;DHT22;3478;51.462;7.338;2023-04-25T23:57:10;5.20;99.90
